sensor_id;sensor_type;location;lat;lon;timestamp;P1;durP1;ratioP1;P2;durP2;ratioP2
17365;SDS011;8800;50.118;9.900;2023-02-10T00:00:26;39.90;;;14.32;;
17365;SDS011;8800;50.118;9.900;2023-02-10T00:02:52;36.75;;;13.65;;
17365;SDS011;8800;50.118;9.900;2023-02-10T00:05:20;47.58;;;15.15;;
17365;SDS011;8800;50.118;9.900;2023-02-10T00:07:47;47.55;;;16.17;;
17365;SDS011;8800;50.118;9.900;2023-02-10T00:10:13;43.53;;;16.45;;
17365;SDS011;8800;50.118;9.900;2023-02-10T00:12:39;42.72;;;14.73;;
17365;SDS011;8800;50.118;9.900;2023-02-10T00:15:06;39.28;;;14.63;;
17365;SDS011;8800;50.118;9.900;2023-02-10T00:17:33;35.72;;;14.50;;
17365;SDS011;8800;50.118;9.900;2023-02-10T00:19:59;35.70;;;14.55;;
17365;SDS011;8800;50.118;9.900;2023-02-10T00:22:27;41.50;;;15.32;;
17365;SDS011;8800;50.118;9.900;2023-02-10T00:24:53;39.22;;;14.68;;
17365;SDS011;8800;50.118;9.900;2023-02-10T00:27:20;44.03;;;15.35;;
17365;SDS011;8800;50.118;9.900;2023-02-10T00:29:49;41.97;;;15.35;;
17365;SDS011;8800;50.118;9.900;2023-02-10T00:32:15;40.40;;;14.48;;
17365;SDS011;8800;50.118;9.900;2023-02-10T00:34:42;48.45;;;16.92;;
17365;SDS011;8800;50.118;9.900;2023-02-10T00:37:08;46.47;;;16.55;;
17365;SDS011;8800;50.118;9.900;2023-02-10T00:39:36;53.97;;;17.88;;
17365;SDS011;8800;50.118;9.900;2023-02-10T00:42:03;52.28;;;18.45;;
17365;SDS011;8800;50.118;9.900;2023-02-10T00:44:29;44.97;;;15.93;;
17365;SDS011;8800;50.118;9.900;2023-02-10T00:46:55;41.17;;;16.17;;
17365;SDS011;8800;50.118;9.900;2023-02-10T00:49:22;44.35;;;14.90;;
17365;SDS011;8800;50.118;9.900;2023-02-10T00:51:48;47.15;;;15.40;;
17365;SDS011;8800;50.118;9.900;2023-02-10T00:54:15;41.92;;;14.75;;
17365;SDS011;8800;50.118;9.900;2023-02-10T00:56:42;42.75;;;16.08;;
17365;SDS011;8800;50.118;9.900;2023-02-10T00:59:13;45.13;;;14.40;;
17365;SDS011;8800;50.118;9.900;2023-02-10T01:01:40;34.05;;;12.93;;
17365;SDS011;8800;50.118;9.900;2023-02-10T01:04:06;41.78;;;14.48;;
17365;SDS011;8800;50.118;9.900;2023-02-10T01:06:33;38.10;;;13.75;;
17365;SDS011;8800;50.118;9.900;2023-02-10T01:08:59;39.95;;;14.18;;
17365;SDS011;8800;50.118;9.900;2023-02-10T01:11:26;40.35;;;14.25;;
17365;SDS011;8800;50.118;9.900;2023-02-10T01:13:53;41.42;;;13.70;;
17365;SDS011;8800;50.118;9.900;2023-02-10T01:16:20;37.55;;;13.73;;
17365;SDS011;8800;50.118;9.900;2023-02-10T01:18:46;35.75;;;14.30;;
17365;SDS011;8800;50.118;9.900;2023-02-10T01:21:13;41.42;;;15.15;;
17365;SDS011;8800;50.118;9.900;2023-02-10T01:23:40;37.15;;;14.63;;
17365;SDS011;8800;50.118;9.900;2023-02-10T01:26:06;35.50;;;13.73;;
17365;SDS011;8800;50.118;9.900;2023-02-10T01:28:33;39.22;;;12.95;;
17365;SDS011;8800;50.118;9.900;2023-02-10T01:31:05;39.17;;;13.60;;
17365;SDS011;8800;50.118;9.900;2023-02-10T01:33:32;36.20;;;13.40;;
17365;SDS011;8800;50.118;9.900;2023-02-10T01:35:58;38.65;;;13.35;;
17365;SDS011;8800;50.118;9.900;2023-02-10T01:38:27;42.60;;;13.35;;
17365;SDS011;8800;50.118;9.900;2023-02-10T01:40:54;42.10;;;13.82;;
17365;SDS011;8800;50.118;9.900;2023-02-10T01:43:20;30.20;;;11.93;;
17365;SDS011;8800;50.118;9.900;2023-02-10T01:45:47;33.88;;;13.00;;
17365;SDS011;8800;50.118;9.900;2023-02-10T01:48:14;33.75;;;12.25;;
17365;SDS011;8800;50.118;9.900;2023-02-10T01:50:42;29.50;;;11.40;;
17365;SDS011;8800;50.118;9.900;2023-02-10T01:53:09;36.28;;;13.15;;
17365;SDS011;8800;50.118;9.900;2023-02-10T01:55:35;36.83;;;12.85;;
17365;SDS011;8800;50.118;9.900;2023-02-10T01:58:03;35.90;;;12.88;;
17365;SDS011;8800;50.118;9.900;2023-02-10T02:00:31;35.50;;;12.60;;
17365;SDS011;8800;50.118;9.900;2023-02-10T02:02:57;39.00;;;13.00;;
17365;SDS011;8800;50.118;9.900;2023-02-10T02:05:30;33.42;;;12.95;;
17365;SDS011;8800;50.118;9.900;2023-02-10T02:07:58;39.72;;;13.00;;
17365;SDS011;8800;50.118;9.900;2023-02-10T02:10:27;43.90;;;12.75;;
17365;SDS011;8800;50.118;9.900;2023-02-10T02:12:56;32.97;;;12.95;;
17365;SDS011;8800;50.118;9.900;2023-02-10T02:15:26;37.60;;;14.05;;
17365;SDS011;8800;50.118;9.900;2023-02-10T02:17:55;37.67;;;13.55;;
17365;SDS011;8800;50.118;9.900;2023-02-10T02:23:25;37.38;;;13.00;;
17365;SDS011;8800;50.118;9.900;2023-02-10T02:28:50;38.83;;;12.27;;
17365;SDS011;8800;50.118;9.900;2023-02-10T02:34:15;36.58;;;12.45;;
17365;SDS011;8800;50.118;9.900;2023-02-10T02:36:44;35.88;;;12.40;;
17365;SDS011;8800;50.118;9.900;2023-02-10T02:39:12;35.15;;;12.25;;
17365;SDS011;8800;50.118;9.900;2023-02-10T02:41:39;39.85;;;13.43;;
17365;SDS011;8800;50.118;9.900;2023-02-10T02:44:05;35.25;;;12.82;;
17365;SDS011;8800;50.118;9.900;2023-02-10T02:46:34;42.92;;;12.35;;
17365;SDS011;8800;50.118;9.900;2023-02-10T02:49:02;37.22;;;12.32;;
17365;SDS011;8800;50.118;9.900;2023-02-10T02:51:34;34.85;;;12.70;;
17365;SDS011;8800;50.118;9.900;2023-02-10T02:54:06;40.15;;;13.25;;
17365;SDS011;8800;50.118;9.900;2023-02-10T02:56:36;35.80;;;12.35;;
17365;SDS011;8800;50.118;9.900;2023-02-10T02:59:08;35.17;;;12.68;;
17365;SDS011;8800;50.118;9.900;2023-02-10T03:01:36;34.13;;;11.82;;
17365;SDS011;8800;50.118;9.900;2023-02-10T03:04:05;35.47;;;12.73;;
17365;SDS011;8800;50.118;9.900;2023-02-10T03:06:34;40.28;;;14.15;;
17365;SDS011;8800;50.118;9.900;2023-02-10T03:09:01;37.63;;;12.30;;
17365;SDS011;8800;50.118;9.900;2023-02-10T03:11:27;37.42;;;13.23;;
17365;SDS011;8800;50.118;9.900;2023-02-10T03:13:53;41.90;;;16.13;;
17365;SDS011;8800;50.118;9.900;2023-02-10T03:16:20;40.80;;;14.80;;
17365;SDS011;8800;50.118;9.900;2023-02-10T03:18:46;41.08;;;15.52;;
17365;SDS011;8800;50.118;9.900;2023-02-10T03:21:13;40.22;;;14.68;;
17365;SDS011;8800;50.118;9.900;2023-02-10T03:23:40;40.03;;;15.27;;
17365;SDS011;8800;50.118;9.900;2023-02-10T03:26:07;37.53;;;13.95;;
17365;SDS011;8800;50.118;9.900;2023-02-10T03:28:36;35.47;;;13.05;;
17365;SDS011;8800;50.118;9.900;2023-02-10T03:31:03;35.67;;;13.10;;
17365;SDS011;8800;50.118;9.900;2023-02-10T03:33:29;34.25;;;11.85;;
17365;SDS011;8800;50.118;9.900;2023-02-10T03:35:56;42.90;;;13.15;;
17365;SDS011;8800;50.118;9.900;2023-02-10T03:38:24;32.92;;;12.15;;
17365;SDS011;8800;50.118;9.900;2023-02-10T03:40:53;33.67;;;12.23;;
17365;SDS011;8800;50.118;9.900;2023-02-10T03:43:19;34.00;;;12.55;;
17365;SDS011;8800;50.118;9.900;2023-02-10T03:45:46;35.55;;;11.32;;
17365;SDS011;8800;50.118;9.900;2023-02-10T03:48:13;33.67;;;11.43;;
17365;SDS011;8800;50.118;9.900;2023-02-10T03:50:40;33.97;;;11.65;;
17365;SDS011;8800;50.118;9.900;2023-02-10T03:53:07;33.53;;;12.32;;
17365;SDS011;8800;50.118;9.900;2023-02-10T03:55:33;31.55;;;12.13;;
17365;SDS011;8800;50.118;9.900;2023-02-10T03:58:01;34.50;;;11.85;;
17365;SDS011;8800;50.118;9.900;2023-02-10T04:00:28;33.58;;;12.50;;
17365;SDS011;8800;50.118;9.900;2023-02-10T04:02:54;33.00;;;11.93;;
17365;SDS011;8800;50.118;9.900;2023-02-10T04:05:20;34.03;;;12.63;;
17365;SDS011;8800;50.118;9.900;2023-02-10T04:07:47;31.60;;;11.15;;
17365;SDS011;8800;50.118;9.900;2023-02-10T04:10:13;30.38;;;11.75;;
17365;SDS011;8800;50.118;9.900;2023-02-10T04:12:40;36.33;;;13.48;;
17365;SDS011;8800;50.118;9.900;2023-02-10T04:15:08;36.15;;;12.20;;
17365;SDS011;8800;50.118;9.900;2023-02-10T04:17:34;36.00;;;12.02;;
17365;SDS011;8800;50.118;9.900;2023-02-10T04:20:01;35.45;;;12.07;;
17365;SDS011;8800;50.118;9.900;2023-02-10T04:22:27;36.22;;;11.90;;
17365;SDS011;8800;50.118;9.900;2023-02-10T04:24:53;36.92;;;12.07;;
17365;SDS011;8800;50.118;9.900;2023-02-10T04:27:20;34.97;;;12.80;;
17365;SDS011;8800;50.118;9.900;2023-02-10T04:29:46;37.13;;;13.65;;
17365;SDS011;8800;50.118;9.900;2023-02-10T04:32:14;34.42;;;12.45;;
17365;SDS011;8800;50.118;9.900;2023-02-10T04:34:40;40.75;;;13.00;;
17365;SDS011;8800;50.118;9.900;2023-02-10T04:37:07;38.20;;;11.80;;
17365;SDS011;8800;50.118;9.900;2023-02-10T04:39:33;38.28;;;13.73;;
17365;SDS011;8800;50.118;9.900;2023-02-10T04:41:59;40.17;;;12.85;;
17365;SDS011;8800;50.118;9.900;2023-02-10T04:44:26;39.03;;;13.57;;
17365;SDS011;8800;50.118;9.900;2023-02-10T04:46:52;37.67;;;13.43;;
17365;SDS011;8800;50.118;9.900;2023-02-10T04:49:20;36.80;;;13.43;;
17365;SDS011;8800;50.118;9.900;2023-02-10T04:51:46;35.95;;;13.35;;
17365;SDS011;8800;50.118;9.900;2023-02-10T04:54:14;35.13;;;12.75;;
17365;SDS011;8800;50.118;9.900;2023-02-10T04:56:40;34.28;;;12.32;;
17365;SDS011;8800;50.118;9.900;2023-02-10T04:59:07;37.28;;;13.48;;
17365;SDS011;8800;50.118;9.900;2023-02-10T05:01:33;38.90;;;14.23;;
17365;SDS011;8800;50.118;9.900;2023-02-10T05:03:59;37.83;;;13.73;;
17365;SDS011;8800;50.118;9.900;2023-02-10T05:06:27;43.65;;;14.23;;
17365;SDS011;8800;50.118;9.900;2023-02-10T05:08:53;38.00;;;13.55;;
17365;SDS011;8800;50.118;9.900;2023-02-10T05:11:20;35.08;;;13.45;;
17365;SDS011;8800;50.118;9.900;2023-02-10T05:13:46;41.67;;;15.43;;
17365;SDS011;8800;50.118;9.900;2023-02-10T05:16:13;40.10;;;13.93;;
17365;SDS011;8800;50.118;9.900;2023-02-10T05:18:40;38.70;;;14.13;;
17365;SDS011;8800;50.118;9.900;2023-02-10T05:21:06;41.17;;;14.52;;
17365;SDS011;8800;50.118;9.900;2023-02-10T05:23:34;45.53;;;14.27;;
17365;SDS011;8800;50.118;9.900;2023-02-10T05:26:01;40.65;;;13.48;;
17365;SDS011;8800;50.118;9.900;2023-02-10T05:28:27;50.55;;;13.95;;
17365;SDS011;8800;50.118;9.900;2023-02-10T05:30:54;39.00;;;13.68;;
17365;SDS011;8800;50.118;9.900;2023-02-10T05:33:20;41.72;;;14.35;;
17365;SDS011;8800;50.118;9.900;2023-02-10T05:35:47;38.35;;;14.43;;
17365;SDS011;8800;50.118;9.900;2023-02-10T05:38:13;38.45;;;14.52;;
17365;SDS011;8800;50.118;9.900;2023-02-10T05:40:41;43.47;;;13.40;;
17365;SDS011;8800;50.118;9.900;2023-02-10T05:43:07;37.08;;;13.00;;
17365;SDS011;8800;50.118;9.900;2023-02-10T05:45:35;39.58;;;14.43;;
17365;SDS011;8800;50.118;9.900;2023-02-10T05:48:01;38.80;;;15.40;;
17365;SDS011;8800;50.118;9.900;2023-02-10T05:50:27;41.67;;;15.63;;
17365;SDS011;8800;50.118;9.900;2023-02-10T05:52:54;40.42;;;15.38;;
17365;SDS011;8800;50.118;9.900;2023-02-10T05:55:21;46.13;;;16.05;;
17365;SDS011;8800;50.118;9.900;2023-02-10T05:57:50;45.70;;;16.08;;
17365;SDS011;8800;50.118;9.900;2023-02-10T06:00:17;43.20;;;15.55;;
17365;SDS011;8800;50.118;9.900;2023-02-10T06:02:43;40.55;;;15.23;;
17365;SDS011;8800;50.118;9.900;2023-02-10T06:05:10;45.35;;;15.95;;
17365;SDS011;8800;50.118;9.900;2023-02-10T06:07:36;42.35;;;14.73;;
17365;SDS011;8800;50.118;9.900;2023-02-10T06:10:03;43.13;;;15.50;;
17365;SDS011;8800;50.118;9.900;2023-02-10T06:12:29;36.80;;;13.65;;
17365;SDS011;8800;50.118;9.900;2023-02-10T06:14:57;40.03;;;13.82;;
17365;SDS011;8800;50.118;9.900;2023-02-10T06:17:24;41.08;;;14.90;;
17365;SDS011;8800;50.118;9.900;2023-02-10T06:19:51;43.53;;;14.35;;
17365;SDS011;8800;50.118;9.900;2023-02-10T06:22:17;41.35;;;15.05;;
17365;SDS011;8800;50.118;9.900;2023-02-10T06:24:44;34.60;;;14.15;;
17365;SDS011;8800;50.118;9.900;2023-02-10T06:27:10;40.70;;;15.50;;
17365;SDS011;8800;50.118;9.900;2023-02-10T06:29:36;36.92;;;13.48;;
17365;SDS011;8800;50.118;9.900;2023-02-10T06:32:04;39.97;;;15.23;;
17365;SDS011;8800;50.118;9.900;2023-02-10T06:34:30;38.40;;;14.40;;
17365;SDS011;8800;50.118;9.900;2023-02-10T06:36:57;43.58;;;14.40;;
17365;SDS011;8800;50.118;9.900;2023-02-10T06:39:23;39.33;;;15.18;;
17365;SDS011;8800;50.118;9.900;2023-02-10T06:41:50;41.10;;;15.45;;
17365;SDS011;8800;50.118;9.900;2023-02-10T06:44:16;43.28;;;16.23;;
17365;SDS011;8800;50.118;9.900;2023-02-10T06:46:42;36.83;;;15.25;;
17365;SDS011;8800;50.118;9.900;2023-02-10T06:49:10;39.47;;;15.10;;
17365;SDS011;8800;50.118;9.900;2023-02-10T06:51:36;44.30;;;16.38;;
17365;SDS011;8800;50.118;9.900;2023-02-10T06:54:03;50.60;;;21.17;;
17365;SDS011;8800;50.118;9.900;2023-02-10T06:56:29;56.47;;;19.02;;
17365;SDS011;8800;50.118;9.900;2023-02-10T06:58:55;51.10;;;17.92;;
17365;SDS011;8800;50.118;9.900;2023-02-10T07:01:22;46.72;;;16.92;;
17365;SDS011;8800;50.118;9.900;2023-02-10T07:03:48;41.58;;;16.08;;
17365;SDS011;8800;50.118;9.900;2023-02-10T07:06:16;41.95;;;14.88;;
17365;SDS011;8800;50.118;9.900;2023-02-10T07:08:44;43.30;;;15.55;;
17365;SDS011;8800;50.118;9.900;2023-02-10T07:11:11;40.80;;;15.40;;
17365;SDS011;8800;50.118;9.900;2023-02-10T07:13:38;54.88;;;18.65;;
17365;SDS011;8800;50.118;9.900;2023-02-10T07:16:05;71.68;;;22.42;;
17365;SDS011;8800;50.118;9.900;2023-02-10T07:18:31;65.53;;;21.40;;
17365;SDS011;8800;50.118;9.900;2023-02-10T07:20:57;63.90;;;20.67;;
17365;SDS011;8800;50.118;9.900;2023-02-10T07:23:25;59.90;;;19.92;;
17365;SDS011;8800;50.118;9.900;2023-02-10T07:25:51;52.80;;;19.55;;
17365;SDS011;8800;50.118;9.900;2023-02-10T07:28:18;44.50;;;17.55;;
17365;SDS011;8800;50.118;9.900;2023-02-10T07:30:44;41.47;;;16.25;;
17365;SDS011;8800;50.118;9.900;2023-02-10T07:33:11;47.42;;;17.10;;
17365;SDS011;8800;50.118;9.900;2023-02-10T07:35:37;41.42;;;17.55;;
17365;SDS011;8800;50.118;9.900;2023-02-10T07:38:03;43.30;;;17.10;;
17365;SDS011;8800;50.118;9.900;2023-02-10T07:40:31;43.88;;;16.65;;
17365;SDS011;8800;50.118;9.900;2023-02-10T07:42:58;43.38;;;15.70;;
17365;SDS011;8800;50.118;9.900;2023-02-10T07:45:24;41.10;;;15.23;;
17365;SDS011;8800;50.118;9.900;2023-02-10T07:47:51;45.67;;;17.30;;
17365;SDS011;8800;50.118;9.900;2023-02-10T07:50:17;51.35;;;17.85;;
17365;SDS011;8800;50.118;9.900;2023-02-10T07:52:44;42.53;;;16.65;;
17365;SDS011;8800;50.118;9.900;2023-02-10T07:55:10;41.10;;;15.52;;
17365;SDS011;8800;50.118;9.900;2023-02-10T07:57:38;48.78;;;16.13;;
17365;SDS011;8800;50.118;9.900;2023-02-10T08:00:05;38.47;;;16.05;;
17365;SDS011;8800;50.118;9.900;2023-02-10T08:02:32;43.97;;;15.18;;
17365;SDS011;8800;50.118;9.900;2023-02-10T08:04:58;43.88;;;15.80;;
17365;SDS011;8800;50.118;9.900;2023-02-10T08:07:24;42.83;;;16.30;;
17365;SDS011;8800;50.118;9.900;2023-02-10T08:09:51;38.63;;;15.50;;
17365;SDS011;8800;50.118;9.900;2023-02-10T08:12:17;39.80;;;16.52;;
17365;SDS011;8800;50.118;9.900;2023-02-10T08:14:46;44.92;;;18.40;;
17365;SDS011;8800;50.118;9.900;2023-02-10T08:17:12;47.40;;;17.15;;
17365;SDS011;8800;50.118;9.900;2023-02-10T08:19:39;39.60;;;15.30;;
17365;SDS011;8800;50.118;9.900;2023-02-10T08:22:05;51.13;;;16.63;;
17365;SDS011;8800;50.118;9.900;2023-02-10T08:24:31;35.58;;;15.23;;
17365;SDS011;8800;50.118;9.900;2023-02-10T08:26:58;40.80;;;15.93;;
17365;SDS011;8800;50.118;9.900;2023-02-10T08:29:24;44.72;;;16.58;;
17365;SDS011;8800;50.118;9.900;2023-02-10T08:31:52;44.17;;;16.17;;
17365;SDS011;8800;50.118;9.900;2023-02-10T08:34:19;46.78;;;16.48;;
17365;SDS011;8800;50.118;9.900;2023-02-10T08:36:46;42.85;;;16.00;;
17365;SDS011;8800;50.118;9.900;2023-02-10T08:39:12;41.70;;;16.13;;
17365;SDS011;8800;50.118;9.900;2023-02-10T08:41:39;42.40;;;16.63;;
17365;SDS011;8800;50.118;9.900;2023-02-10T08:44:06;39.95;;;16.45;;
17365;SDS011;8800;50.118;9.900;2023-02-10T08:46:33;40.63;;;16.52;;
17365;SDS011;8800;50.118;9.900;2023-02-10T08:49:00;43.08;;;17.25;;
17365;SDS011;8800;50.118;9.900;2023-02-10T08:51:27;44.67;;;18.05;;
17365;SDS011;8800;50.118;9.900;2023-02-10T08:53:54;42.97;;;16.85;;
17365;SDS011;8800;50.118;9.900;2023-02-10T08:56:21;47.78;;;17.60;;
17365;SDS011;8800;50.118;9.900;2023-02-10T08:58:47;46.80;;;17.83;;
17365;SDS011;8800;50.118;9.900;2023-02-10T09:01:16;45.20;;;17.27;;
17365;SDS011;8800;50.118;9.900;2023-02-10T09:03:43;45.33;;;17.73;;
17365;SDS011;8800;50.118;9.900;2023-02-10T09:06:14;45.20;;;17.20;;
17365;SDS011;8800;50.118;9.900;2023-02-10T09:08:41;46.45;;;16.83;;
17365;SDS011;8800;50.118;9.900;2023-02-10T09:11:08;47.45;;;17.00;;
17365;SDS011;8800;50.118;9.900;2023-02-10T09:13:34;42.85;;;16.35;;
17365;SDS011;8800;50.118;9.900;2023-02-10T09:16:00;42.42;;;18.00;;
17365;SDS011;8800;50.118;9.900;2023-02-10T09:18:27;49.58;;;18.52;;
17365;SDS011;8800;50.118;9.900;2023-02-10T09:20:53;41.33;;;16.83;;
17365;SDS011;8800;50.118;9.900;2023-02-10T09:23:21;45.95;;;17.92;;
17365;SDS011;8800;50.118;9.900;2023-02-10T09:25:51;45.92;;;17.50;;
17365;SDS011;8800;50.118;9.900;2023-02-10T09:28:18;48.65;;;17.15;;
17365;SDS011;8800;50.118;9.900;2023-02-10T09:30:44;40.78;;;16.60;;
17365;SDS011;8800;50.118;9.900;2023-02-10T09:33:10;47.65;;;16.95;;
17365;SDS011;8800;50.118;9.900;2023-02-10T09:35:37;43.10;;;17.20;;
17365;SDS011;8800;50.118;9.900;2023-02-10T09:38:04;48.13;;;17.70;;
17365;SDS011;8800;50.118;9.900;2023-02-10T09:40:33;39.70;;;16.67;;
17365;SDS011;8800;50.118;9.900;2023-02-10T09:43:07;49.97;;;17.73;;
17365;SDS011;8800;50.118;9.900;2023-02-10T09:45:34;40.92;;;16.70;;
17365;SDS011;8800;50.118;9.900;2023-02-10T09:48:06;46.03;;;16.98;;
17365;SDS011;8800;50.118;9.900;2023-02-10T09:50:38;55.80;;;20.05;;
17365;SDS011;8800;50.118;9.900;2023-02-10T09:53:08;51.92;;;18.83;;
17365;SDS011;8800;50.118;9.900;2023-02-10T09:55:38;49.35;;;18.83;;
17365;SDS011;8800;50.118;9.900;2023-02-10T09:58:08;52.55;;;19.15;;
17365;SDS011;8800;50.118;9.900;2023-02-10T10:00:40;47.25;;;19.48;;
17365;SDS011;8800;50.118;9.900;2023-02-10T10:03:07;47.13;;;19.55;;
17365;SDS011;8800;50.118;9.900;2023-02-10T10:05:39;48.47;;;18.92;;
17365;SDS011;8800;50.118;9.900;2023-02-10T10:08:13;53.72;;;20.25;;
17365;SDS011;8800;50.118;9.900;2023-02-10T10:10:44;51.13;;;19.00;;
17365;SDS011;8800;50.118;9.900;2023-02-10T10:13:11;45.03;;;19.35;;
17365;SDS011;8800;50.118;9.900;2023-02-10T10:15:40;47.42;;;20.08;;
17365;SDS011;8800;50.118;9.900;2023-02-10T10:18:09;52.90;;;19.88;;
17365;SDS011;8800;50.118;9.900;2023-02-10T10:20:41;51.00;;;21.30;;
17365;SDS011;8800;50.118;9.900;2023-02-10T10:23:21;55.13;;;21.13;;
17365;SDS011;8800;50.118;9.900;2023-02-10T10:25:57;51.45;;;20.67;;
17365;SDS011;8800;50.118;9.900;2023-02-10T10:28:29;52.13;;;20.77;;
17365;SDS011;8800;50.118;9.900;2023-02-10T10:31:00;53.35;;;20.17;;
17365;SDS011;8800;50.118;9.900;2023-02-10T10:33:30;49.30;;;20.55;;
17365;SDS011;8800;50.118;9.900;2023-02-10T10:35:58;52.13;;;19.70;;
17365;SDS011;8800;50.118;9.900;2023-02-10T10:38:28;48.15;;;20.73;;
17365;SDS011;8800;50.118;9.900;2023-02-10T10:40:56;51.95;;;20.42;;
17365;SDS011;8800;50.118;9.900;2023-02-10T10:43:26;53.08;;;21.23;;
17365;SDS011;8800;50.118;9.900;2023-02-10T10:45:54;56.33;;;22.65;;
17365;SDS011;8800;50.118;9.900;2023-02-10T10:48:22;52.45;;;20.83;;
17365;SDS011;8800;50.118;9.900;2023-02-10T10:50:51;54.83;;;20.80;;
17365;SDS011;8800;50.118;9.900;2023-02-10T10:53:19;49.30;;;20.17;;
17365;SDS011;8800;50.118;9.900;2023-02-10T10:55:48;48.22;;;20.35;;
17365;SDS011;8800;50.118;9.900;2023-02-10T10:58:20;49.58;;;20.33;;
17365;SDS011;8800;50.118;9.900;2023-02-10T11:00:49;48.38;;;19.25;;
17365;SDS011;8800;50.118;9.900;2023-02-10T11:03:16;46.00;;;18.38;;
17365;SDS011;8800;50.118;9.900;2023-02-10T11:05:43;42.85;;;17.75;;
17365;SDS011;8800;50.118;9.900;2023-02-10T11:08:22;48.00;;;18.75;;
17365;SDS011;8800;50.118;9.900;2023-02-10T11:10:49;46.03;;;18.83;;
17365;SDS011;8800;50.118;9.900;2023-02-10T11:13:18;43.75;;;18.00;;
17365;SDS011;8800;50.118;9.900;2023-02-10T11:15:45;46.90;;;17.65;;
17365;SDS011;8800;50.118;9.900;2023-02-10T11:18:14;44.15;;;17.98;;
17365;SDS011;8800;50.118;9.900;2023-02-10T11:20:50;42.85;;;18.25;;
17365;SDS011;8800;50.118;9.900;2023-02-10T11:23:17;40.92;;;17.42;;
17365;SDS011;8800;50.118;9.900;2023-02-10T11:25:45;46.03;;;19.00;;
17365;SDS011;8800;50.118;9.900;2023-02-10T11:28:16;44.22;;;18.17;;
17365;SDS011;8800;50.118;9.900;2023-02-10T11:30:45;45.20;;;17.50;;
17365;SDS011;8800;50.118;9.900;2023-02-10T11:33:18;46.55;;;17.77;;
17365;SDS011;8800;50.118;9.900;2023-02-10T11:35:46;43.20;;;17.17;;
17365;SDS011;8800;50.118;9.900;2023-02-10T11:38:16;43.30;;;18.25;;
17365;SDS011;8800;50.118;9.900;2023-02-10T11:40:49;45.00;;;18.45;;
17365;SDS011;8800;50.118;9.900;2023-02-10T11:43:15;45.38;;;18.25;;
17365;SDS011;8800;50.118;9.900;2023-02-10T11:45:51;45.35;;;18.83;;
17365;SDS011;8800;50.118;9.900;2023-02-10T11:48:19;42.97;;;19.10;;
17365;SDS011;8800;50.118;9.900;2023-02-10T11:50:46;47.30;;;19.40;;
17365;SDS011;8800;50.118;9.900;2023-02-10T11:53:14;44.70;;;17.83;;
17365;SDS011;8800;50.118;9.900;2023-02-10T11:55:48;44.28;;;17.80;;
17365;SDS011;8800;50.118;9.900;2023-02-10T11:58:23;41.00;;;17.42;;
17365;SDS011;8800;50.118;9.900;2023-02-10T12:01:13;41.38;;;17.83;;
17365;SDS011;8800;50.118;9.900;2023-02-10T12:03:44;37.40;;;17.55;;
17365;SDS011;8800;50.118;9.900;2023-02-10T12:06:13;41.58;;;17.70;;
17365;SDS011;8800;50.118;9.900;2023-02-10T12:08:45;37.83;;;17.25;;
17365;SDS011;8800;50.118;9.900;2023-02-10T12:11:14;38.97;;;17.00;;
17365;SDS011;8800;50.118;9.900;2023-02-10T12:13:47;37.55;;;16.90;;
17365;SDS011;8800;50.118;9.900;2023-02-10T12:16:18;34.97;;;15.43;;
17365;SDS011;8800;50.118;9.900;2023-02-10T12:18:50;39.13;;;17.05;;
17365;SDS011;8800;50.118;9.900;2023-02-10T12:21:23;37.40;;;16.27;;
17365;SDS011;8800;50.118;9.900;2023-02-10T12:23:59;39.95;;;17.33;;
17365;SDS011;8800;50.118;9.900;2023-02-10T12:26:29;37.20;;;16.95;;
17365;SDS011;8800;50.118;9.900;2023-02-10T12:29:05;39.83;;;17.70;;
17365;SDS011;8800;50.118;9.900;2023-02-10T12:31:40;36.28;;;16.38;;
17365;SDS011;8800;50.118;9.900;2023-02-10T12:34:15;37.38;;;16.63;;
17365;SDS011;8800;50.118;9.900;2023-02-10T12:36:46;41.10;;;16.67;;
17365;SDS011;8800;50.118;9.900;2023-02-10T12:39:14;39.03;;;16.15;;
17365;SDS011;8800;50.118;9.900;2023-02-10T12:41:47;38.47;;;16.70;;
17365;SDS011;8800;50.118;9.900;2023-02-10T12:44:18;31.02;;;15.52;;
17365;SDS011;8800;50.118;9.900;2023-02-10T12:46:52;33.92;;;15.65;;
17365;SDS011;8800;50.118;9.900;2023-02-10T12:49:25;34.22;;;16.00;;
17365;SDS011;8800;50.118;9.900;2023-02-10T12:51:57;41.13;;;17.40;;
17365;SDS011;8800;50.118;9.900;2023-02-10T12:54:26;39.22;;;16.48;;
17365;SDS011;8800;50.118;9.900;2023-02-10T12:56:57;35.88;;;16.90;;
17365;SDS011;8800;50.118;9.900;2023-02-10T12:59:26;33.22;;;15.55;;
17365;SDS011;8800;50.118;9.900;2023-02-10T13:01:56;34.13;;;16.90;;
17365;SDS011;8800;50.118;9.900;2023-02-10T13:04:26;31.02;;;16.35;;
17365;SDS011;8800;50.118;9.900;2023-02-10T13:06:56;33.10;;;15.75;;
17365;SDS011;8800;50.118;9.900;2023-02-10T13:09:26;32.60;;;16.05;;
17365;SDS011;8800;50.118;9.900;2023-02-10T13:11:58;37.60;;;16.58;;
17365;SDS011;8800;50.118;9.900;2023-02-10T13:14:28;33.72;;;16.48;;
17365;SDS011;8800;50.118;9.900;2023-02-10T13:16:56;35.63;;;17.15;;
17365;SDS011;8800;50.118;9.900;2023-02-10T13:19:29;37.08;;;16.83;;
17365;SDS011;8800;50.118;9.900;2023-02-10T13:21:57;33.30;;;14.50;;
17365;SDS011;8800;50.118;9.900;2023-02-10T13:24:28;34.45;;;14.88;;
17365;SDS011;8800;50.118;9.900;2023-02-10T13:26:59;38.53;;;16.08;;
17365;SDS011;8800;50.118;9.900;2023-02-10T13:29:31;37.38;;;15.23;;
17365;SDS011;8800;50.118;9.900;2023-02-10T13:32:11;37.88;;;14.98;;
17365;SDS011;8800;50.118;9.900;2023-02-10T13:34:41;35.33;;;14.07;;
17365;SDS011;8800;50.118;9.900;2023-02-10T13:37:11;38.30;;;14.88;;
17365;SDS011;8800;50.118;9.900;2023-02-10T13:39:39;42.20;;;15.40;;
17365;SDS011;8800;50.118;9.900;2023-02-10T13:42:17;39.72;;;15.82;;
17365;SDS011;8800;50.118;9.900;2023-02-10T13:44:55;40.22;;;15.48;;
17365;SDS011;8800;50.118;9.900;2023-02-10T13:47:26;38.35;;;16.55;;
17365;SDS011;8800;50.118;9.900;2023-02-10T13:49:54;42.78;;;16.60;;
17365;SDS011;8800;50.118;9.900;2023-02-10T13:52:21;37.13;;;13.88;;
17365;SDS011;8800;50.118;9.900;2023-02-10T13:54:58;30.95;;;13.25;;
17365;SDS011;8800;50.118;9.900;2023-02-10T13:57:26;38.00;;;13.77;;
17365;SDS011;8800;50.118;9.900;2023-02-10T13:59:53;29.55;;;12.70;;
17365;SDS011;8800;50.118;9.900;2023-02-10T14:02:31;35.28;;;13.27;;
17365;SDS011;8800;50.118;9.900;2023-02-10T14:04:58;36.88;;;13.80;;
17365;SDS011;8800;50.118;9.900;2023-02-10T14:07:32;34.65;;;13.23;;
17365;SDS011;8800;50.118;9.900;2023-02-10T14:10:01;36.38;;;13.40;;
17365;SDS011;8800;50.118;9.900;2023-02-10T14:12:28;38.22;;;14.05;;
17365;SDS011;8800;50.118;9.900;2023-02-10T14:14:54;38.20;;;14.48;;
17365;SDS011;8800;50.118;9.900;2023-02-10T14:17:21;32.47;;;13.60;;
17365;SDS011;8800;50.118;9.900;2023-02-10T14:19:51;34.30;;;12.95;;
17365;SDS011;8800;50.118;9.900;2023-02-10T14:22:21;36.53;;;13.05;;
17365;SDS011;8800;50.118;9.900;2023-02-10T14:24:48;32.85;;;14.07;;
17365;SDS011;8800;50.118;9.900;2023-02-10T14:27:15;35.45;;;13.23;;
17365;SDS011;8800;50.118;9.900;2023-02-10T14:29:44;36.63;;;13.65;;
17365;SDS011;8800;50.118;9.900;2023-02-10T14:32:13;34.35;;;14.18;;
17365;SDS011;8800;50.118;9.900;2023-02-10T14:34:40;32.05;;;12.82;;
17365;SDS011;8800;50.118;9.900;2023-02-10T14:37:14;33.47;;;13.88;;
17365;SDS011;8800;50.118;9.900;2023-02-10T14:39:48;35.13;;;13.15;;
17365;SDS011;8800;50.118;9.900;2023-02-10T14:42:15;35.47;;;13.65;;
17365;SDS011;8800;50.118;9.900;2023-02-10T14:44:43;38.45;;;15.20;;
17365;SDS011;8800;50.118;9.900;2023-02-10T14:47:14;30.63;;;12.13;;